createdAt,value
2022-08-22T00:00:24.432Z,98853.03
2022-08-22T00:02:41.978Z,98861.22
2022-08-22T00:02:45.630Z,98876.94
2022-08-22T00:03:07.364Z,98865.69
2022-08-22T00:03:08.817Z,98869.91
2022-08-22T00:03:09.129Z,98868.44
2022-08-22T00:03:11.736Z,98863.06
2022-08-22T00:03:25.928Z,98852.25
2022-08-22T00:06:22.157Z,98856.25
2022-08-22T00:09:10.600Z,98853.91
2022-08-22T00:12:05.302Z,98856.25
2022-08-22T00:14:58.486Z,98856.69
2022-08-22T00:18:19.838Z,98850.34
2022-08-22T00:21:17.322Z,98849.56
2022-08-22T00:24:18.038Z,98849.22
2022-08-22T00:27:17.496Z,98844.44
2022-08-22T00:30:13.045Z,98847.69
2022-08-22T00:33:05.043Z,98852.44
2022-08-22T00:35:58.846Z,98850.53
2022-08-22T00:38:59.015Z,98852.06
2022-08-22T00:41:56.365Z,98858.88
2022-08-22T00:45:17.379Z,98859.28
2022-08-22T00:48:27.109Z,98855.75
2022-08-22T00:51:33.054Z,98854.19
2022-08-22T00:54:40.210Z,98854.97
2022-08-22T00:57:47.427Z,98856.97
2022-08-22T01:00:42.255Z,98862.19
2022-08-22T01:03:39.850Z,98857.41
2022-08-22T01:06:40.020Z,98866.53
2022-08-22T01:09:38.127Z,98855.81
2022-08-22T01:12:39.706Z,98861.38
2022-08-22T01:15:30.558Z,98859.84
2022-08-22T01:18:39.423Z,98865.41
2022-08-22T01:21:24.738Z,98864.28
2022-08-22T01:24:09.957Z,98863.16
2022-08-22T01:27:17.525Z,98866.28
2022-08-22T01:30:25.174Z,98864.72
2022-08-22T01:33:40.782Z,98866.72
2022-08-22T01:37:04.434Z,98865.59
2022-08-22T01:39:52.760Z,98860.03
2022-08-22T01:42:48.431Z,98864.38
2022-08-22T01:46:08.141Z,98872.72
2022-08-22T01:49:05.119Z,98874.81
2022-08-22T01:51:57.163Z,98869.59
2022-08-22T01:55:03.883Z,98873.19
2022-08-22T01:57:56.111Z,98874.03
2022-08-22T02:01:20.249Z,98868.03
2022-08-22T02:04:35.023Z,98859.78
2022-08-22T02:07:31.842Z,98872.91
2022-08-22T02:10:41.734Z,98864.13
2022-08-22T02:13:36.616Z,98865.00
2022-08-22T02:16:31.258Z,98868.13
2022-08-22T02:19:16.680Z,98877.69
2022-08-22T02:22:18.190Z,98865.78
2022-08-22T02:25:13.444Z,98870.91
2022-08-22T02:28:14.540Z,98869.78
2022-08-22T02:31:36.795Z,98871.78
2022-08-22T02:34:53.393Z,98872.56
2022-08-22T02:37:50.126Z,98876.22
2022-08-22T02:40:44.301Z,98878.66
2022-08-22T02:43:39.561Z,98873.88
2022-08-22T02:46:40.141Z,98877.09
2022-08-22T02:49:33.535Z,98881.44
2022-08-22T02:52:26.338Z,98869.53
2022-08-22T02:55:54.282Z,98871.53
2022-08-22T02:58:47.409Z,98863.63
2022-08-22T03:01:37.930Z,98870.75
2022-08-22T03:04:31.859Z,98872.75
2022-08-22T03:07:20.279Z,98869.28
2022-08-22T03:10:26.267Z,98870.06
2022-08-22T03:13:16.996Z,98863.72
2022-08-22T03:16:38.502Z,98872.50
2022-08-22T03:19:47.221Z,98868.50
2022-08-22T03:22:51.657Z,98866.06
2022-08-22T03:25:40.481Z,98871.63
2022-08-22T03:29:04.323Z,98867.63
2022-08-22T03:32:13.606Z,98864.41
2022-08-22T03:35:10.657Z,98863.63
2022-08-22T03:38:39.797Z,98867.63
2022-08-22T03:42:09.247Z,98867.63
2022-08-22T03:45:04.017Z,98854.94
2022-08-22T03:48:02.430Z,98860.16
2022-08-22T03:51:10.303Z,98864.50
2022-08-22T03:54:33.186Z,98868.06
2022-08-22T03:57:24.652Z,98867.72
2022-08-22T04:00:30.625Z,98865.47
2022-08-22T04:03:31.836Z,98874.59
2022-08-22T04:06:36.097Z,98869.41
2022-08-22T04:09:42.913Z,98860.59
2022-08-22T04:13:03.741Z,98864.94
2022-08-22T04:16:19.597Z,98870.84
2022-08-22T04:19:28.150Z,98869.97
2022-08-22T04:22:26.162Z,98867.53
2022-08-22T04:25:19.122Z,98874.22
2022-08-22T04:28:43.378Z,98875.34
2022-08-22T04:31:34.771Z,98874.50
2022-08-22T04:34:39.433Z,98875.25
2022-08-22T04:37:28.053Z,98874.81
2022-08-22T04:40:26.054Z,98879.16
2022-08-22T04:43:22.087Z,98880.63
2022-08-22T04:46:23.647Z,98885.41
2022-08-22T04:49:32.794Z,98881.41
2022-08-22T04:52:55.394Z,98874.97
2022-08-22T04:55:56.118Z,98884.44
2022-08-22T04:59:04.679Z,98884.00
2022-08-22T05:02:06.675Z,98882.78
2022-08-22T05:05:04.079Z,98890.09
2022-08-22T05:07:57.211Z,98889.66
2022-08-22T05:10:47.340Z,98890.09
2022-08-22T05:13:44.827Z,98890.09
2022-08-22T05:16:40.691Z,98897.25
2022-08-22T05:19:36.076Z,98896.44
2022-08-22T05:22:33.931Z,98896.44
2022-08-22T05:25:24.745Z,98901.66
2022-08-22T05:28:32.331Z,98908.44
2022-08-22T05:31:26.370Z,98905.75
2022-08-22T05:34:16.810Z,98904.75
2022-08-22T05:37:15.406Z,98908.28
2022-08-22T05:40:01.604Z,98913.50
2022-08-22T05:42:47.786Z,98914.72
2022-08-22T05:45:35.320Z,98908.38
2022-08-22T05:48:30.205Z,98913.94
2022-08-22T05:51:22.212Z,98917.59
2022-08-22T05:54:21.571Z,98912.81
2022-08-22T05:57:31.202Z,98924.81
2022-08-22T06:00:21.808Z,98926.81
2022-08-22T06:03:27.696Z,98922.91
2022-08-22T06:06:19.755Z,98923.25
2022-08-22T06:09:12.671Z,98922.47
2022-08-22T06:12:15.148Z,98924.13
2022-08-22T06:15:21.112Z,98926.13
2022-08-22T06:18:12.814Z,98928.56
2022-08-22T06:21:06.815Z,98926.56
2022-08-22T06:24:21.325Z,98932.91
2022-08-22T06:27:14.291Z,98931.78
2022-08-22T06:30:03.032Z,98924.56
2022-08-22T06:32:58.806Z,98929.75
2022-08-22T06:36:20.556Z,98923.50
2022-08-22T06:39:22.929Z,98928.63
2022-08-22T06:42:19.180Z,98926.28
2022-08-22T06:45:12.213Z,98929.88
2022-08-22T06:48:00.614Z,98928.28
2022-08-22T06:50:51.741Z,98922.72
2022-08-22T06:53:48.041Z,98929.53
2022-08-22T06:56:39.021Z,98928.28
2022-08-22T06:59:29.028Z,98930.66
2022-08-22T07:02:30.526Z,98933.09
2022-08-22T07:05:28.258Z,98927.16
2022-08-22T07:08:20.306Z,98927.50
2022-08-22T07:11:21.911Z,98933.84
2022-08-22T07:14:14.390Z,98939.41
2022-08-22T07:17:02.654Z,98938.63
2022-08-22T07:19:58.519Z,98936.22
2022-08-22T07:23:12.333Z,98933.09
2022-08-22T07:26:19.437Z,98934.63
2022-08-22T07:29:44.217Z,98936.22
2022-08-22T07:33:26.286Z,98933.44
2022-08-22T07:36:54.959Z,98937.75
2022-08-22T07:39:40.553Z,98938.09
2022-08-22T07:42:52.077Z,98939.34
2022-08-22T07:45:46.708Z,98939.00
2022-08-22T07:48:53.640Z,98940.53
2022-08-22T07:51:47.113Z,98942.13
2022-08-22T07:54:38.317Z,98939.69
2022-08-22T07:57:29.631Z,98946.44
2022-08-22T08:00:19.055Z,98931.34
2022-08-22T08:03:07.054Z,98937.25
2022-08-22T08:05:53.788Z,98937.59
2022-08-22T08:08:42.031Z,98937.59
2022-08-22T08:11:33.709Z,98932.03
2022-08-22T08:14:21.971Z,98937.16
2022-08-22T08:17:32.302Z,98929.25
2022-08-22T08:20:21.262Z,98928.03
2022-08-22T08:23:10.315Z,98935.16
2022-08-22T08:26:30.482Z,98929.16
2022-08-22T08:29:18.731Z,98935.94
2022-08-22T08:32:09.324Z,98939.06
2022-08-22T08:34:55.116Z,98939.44
2022-08-22T08:37:59.056Z,98934.28
2022-08-22T08:41:26.655Z,98935.84
2022-08-22T08:44:35.809Z,98923.88
2022-08-22T08:50:55.102Z,98933.53
2022-08-22T08:53:52.999Z,98938.38
2022-08-22T08:56:47.615Z,98932.38
2022-08-22T09:00:02.879Z,98929.50
2022-08-22T09:02:56.037Z,98921.25
2022-08-22T09:06:13.020Z,98930.75
2022-08-22T09:09:15.930Z,98926.38
2022-08-22T09:12:25.823Z,98931.09
2022-08-22T09:16:04.499Z,98934.28
2022-08-22T09:18:59.459Z,98944.53
2022-08-22T09:22:14.663Z,98929.78
2022-08-22T09:25:11.761Z,98937.41
2022-08-22T09:28:21.601Z,98927.50
2022-08-22T09:32:00.138Z,98937.78
2022-08-22T09:34:53.637Z,98936.53
2022-08-22T09:38:06.986Z,98938.19
2022-08-22T09:40:52.769Z,98935.00
2022-08-22T09:43:48.542Z,98935.00
2022-08-22T09:46:44.900Z,98940.56
2022-08-22T09:49:45.735Z,98946.13
2022-08-22T09:52:36.037Z,98942.88
2022-08-22T09:55:57.118Z,98943.34
2022-08-22T09:58:46.410Z,98938.63
2022-08-22T10:01:34.733Z,98937.41
2022-08-22T10:04:26.309Z,98926.31
2022-08-22T10:07:12.287Z,98935.06
2022-08-22T10:10:24.797Z,98929.06
2022-08-22T10:13:38.483Z,98938.53
2022-08-22T10:16:51.710Z,98934.19
2022-08-22T10:19:39.822Z,98944.88
2022-08-22T10:22:35.194Z,98937.31
2022-08-22T10:25:45.457Z,98942.44
2022-08-22T10:28:54.217Z,98948.38
2022-08-22T10:32:10.750Z,98943.56
2022-08-22T10:35:27.591Z,98947.13
2022-08-22T10:38:27.619Z,98943.84
2022-08-22T10:41:15.657Z,98949.06
2022-08-22T10:44:17.305Z,98940.59
2022-08-22T10:47:12.422Z,98941.06
2022-08-22T10:50:20.097Z,98941.06
2022-08-22T10:53:35.863Z,98953.75
2022-08-22T10:56:31.407Z,98941.41
2022-08-22T10:59:29.165Z,98940.94
2022-08-22T11:02:30.713Z,98951.66
2022-08-22T11:05:42.828Z,98941.75
2022-08-22T11:08:44.853Z,98950.41
2022-08-22T11:11:37.981Z,98947.31
2022-08-22T11:14:37.975Z,98951.31
2022-08-22T11:17:58.470Z,98946.09
2022-08-22T11:21:11.003Z,98949.66
2022-08-22T11:24:02.472Z,98953.56
2022-08-22T11:26:59.971Z,98947.22
2022-08-22T11:30:02.327Z,98946.88
2022-08-22T11:33:33.920Z,98960.34
2022-08-22T11:37:04.054Z,98959.56
2022-08-22T11:40:13.486Z,98959.66
2022-08-22T11:43:20.593Z,98962.78
2022-08-22T11:46:46.292Z,98964.00
2022-08-22T11:49:57.427Z,98953.22
2022-08-22T11:53:17.451Z,98955.31
2022-08-22T11:56:24.634Z,98948.09
2022-08-22T11:59:19.812Z,98950.88
2022-08-22T12:02:21.767Z,98949.22
2022-08-22T12:05:20.028Z,98946.88
2022-08-22T12:08:17.133Z,98935.31
2022-08-22T12:11:15.395Z,98941.66
2022-08-22T12:14:11.424Z,98949.22
2022-08-22T12:17:55.471Z,98939.28
2022-08-22T12:21:12.624Z,98940.88
2022-08-22T12:24:19.319Z,98947.31
2022-08-22T12:27:28.675Z,98939.75
2022-08-22T12:30:54.650Z,98937.75
2022-08-22T12:33:52.276Z,98933.41
2022-08-22T12:36:52.831Z,98934.53
2022-08-22T12:40:10.407Z,98921.94
2022-08-22T12:43:28.730Z,98921.94
2022-08-22T12:46:24.507Z,98921.13
2022-08-22T12:49:37.072Z,98913.94
2022-08-22T12:52:28.491Z,98915.50
2022-08-22T12:55:19.912Z,98914.59
2022-08-22T12:58:23.890Z,98920.50
2022-08-22T13:01:10.941Z,98913.06
2022-08-22T13:04:01.238Z,98905.91
2022-08-22T13:06:57.422Z,98913.81
2022-08-22T13:09:48.978Z,98906.72
2022-08-22T13:12:45.290Z,98909.84
2022-08-22T13:15:43.887Z,98909.72
2022-08-22T13:18:44.577Z,98903.38
2022-08-22T13:21:36.180Z,98903.47
2022-08-22T13:24:51.796Z,98913.13
2022-08-22T13:27:50.812Z,98911.16
2022-08-22T13:30:40.769Z,98916.25
2022-08-22T13:33:34.888Z,98919.38
2022-08-22T13:36:22.052Z,98914.25
2022-08-22T13:39:13.445Z,98914.59
2022-08-22T13:42:07.495Z,98910.25
2022-08-22T13:45:05.406Z,98911.81
2022-08-22T13:48:03.668Z,98912.97
2022-08-22T13:51:09.825Z,98909.38
2022-08-22T13:54:20.422Z,98910.63
2022-08-22T13:57:23.770Z,98901.16
2022-08-22T14:00:28.490Z,98902.25
2022-08-22T14:03:22.711Z,98906.59
2022-08-22T14:06:37.228Z,98914.16
2022-08-22T14:09:35.655Z,98912.16
2022-08-22T14:12:50.153Z,98907.56
2022-08-22T14:15:45.619Z,98902.81
2022-08-22T14:18:45.653Z,98902.69
2022-08-22T14:21:40.146Z,98893.91
2022-08-22T14:24:55.589Z,98900.69
2022-08-22T14:27:59.327Z,98899.47
2022-08-22T14:30:54.375Z,98892.69
2022-08-22T14:33:50.947Z,98904.28
2022-08-22T14:36:59.036Z,98894.69
2022-08-22T14:39:50.574Z,98899.47
2022-08-22T14:42:48.064Z,98897.91
2022-08-22T14:45:40.241Z,98888.00
2022-08-22T14:48:35.422Z,98895.75
2022-08-22T14:51:25.616Z,98898.09
2022-08-22T14:54:21.298Z,98896.09
2022-08-22T14:57:14.162Z,98905.25
2022-08-22T15:00:12.196Z,98895.66
2022-08-22T15:03:27.903Z,98906.72
2022-08-22T15:06:31.509Z,98903.47
2022-08-22T15:09:22.932Z,98905.47
2022-08-22T15:12:22.777Z,98903.13
2022-08-22T15:15:49.698Z,98903.59
2022-08-22T15:18:39.866Z,98907.22
2022-08-22T15:21:32.806Z,98903.66
2022-08-22T15:24:19.119Z,98906.44
2022-08-22T15:27:06.619Z,98908.88
2022-08-22T15:29:59.868Z,98904.19
2022-08-22T15:32:46.336Z,98907.41
2022-08-22T15:35:32.251Z,98906.63
2022-08-22T15:38:27.947Z,98900.66
2022-08-22T15:41:26.186Z,98898.53
2022-08-22T15:44:32.658Z,98892.19
2022-08-22T15:47:38.371Z,98889.41
2022-08-22T15:50:37.869Z,98884.72
2022-08-22T15:53:45.593Z,98891.00
2022-08-22T15:56:41.740Z,98883.16
2022-08-22T15:59:29.294Z,98883.97
2022-08-22T16:02:27.211Z,98881.59
2022-08-22T16:05:12.601Z,98883.97
2022-08-22T16:07:57.870Z,98880.72
2022-08-22T16:11:16.175Z,98891.00
2022-08-22T16:14:21.443Z,98889.41
2022-08-22T16:17:26.697Z,98886.28
2022-08-22T16:20:19.800Z,98886.28
2022-08-22T16:23:07.491Z,98899.34
2022-08-22T16:25:53.221Z,98898.53
2022-08-22T16:28:58.192Z,98900.53
2022-08-22T16:31:45.403Z,98909.34
2022-08-22T16:34:37.186Z,98903.31
2022-08-22T16:37:30.679Z,98909.66
2022-08-22T16:40:22.270Z,98912.00
2022-08-22T16:43:18.194Z,98913.59
2022-08-22T16:46:33.161Z,98916.38
2022-08-22T16:49:33.015Z,98915.56
2022-08-22T16:52:24.822Z,98920.00
2022-08-22T16:55:28.738Z,98927.94
2022-08-22T16:58:32.474Z,98928.34
2022-08-22T17:01:42.170Z,98929.94
2022-08-22T17:04:40.277Z,98925.16
2022-08-22T17:07:38.236Z,98922.78
2022-08-22T17:10:46.170Z,98924.81
2022-08-22T17:13:56.803Z,98922.03
2022-08-22T17:16:54.011Z,98933.16
2022-08-22T17:20:05.349Z,98929.25
2022-08-22T17:23:18.396Z,98929.25
2022-08-22T17:26:27.217Z,98928.81
2022-08-22T17:29:42.203Z,98926.03
2022-08-22T17:33:09.603Z,98930.38
2022-08-22T17:36:26.994Z,98934.81
2022-08-22T17:39:31.402Z,98931.25
2022-08-22T17:42:28.752Z,98931.91
2022-08-22T17:45:33.337Z,98930.78
2022-08-22T17:48:40.505Z,98933.22
2022-08-22T17:51:45.145Z,98936.00
2022-08-22T17:54:42.499Z,98941.91
2022-08-22T17:57:39.958Z,98953.03
2022-08-22T18:00:30.136Z,98955.81
2022-08-22T18:03:40.705Z,98949.91
2022-08-22T18:06:32.907Z,98957.94
2022-08-22T18:09:40.180Z,98958.25
2022-08-22T18:12:40.027Z,98951.91
2022-08-22T18:15:31.870Z,98958.59
2022-08-22T18:18:30.091Z,98960.97
2022-08-22T18:21:26.973Z,98964.88
2022-08-22T18:24:12.698Z,98962.44
2022-08-22T18:27:08.193Z,98964.34
2022-08-22T18:30:23.270Z,98959.47
2022-08-22T18:33:22.505Z,98961.78
2022-08-22T18:36:20.727Z,98954.97
2022-08-22T18:39:15.393Z,98962.44
2022-08-22T18:42:09.493Z,98950.88
2022-08-22T18:44:55.335Z,98957.56
2022-08-22T18:47:41.400Z,98953.13
2022-08-22T18:50:33.312Z,98949.91
2022-08-22T18:53:44.013Z,98958.59
2022-08-22T18:56:54.662Z,98968.19
2022-08-22T19:00:16.715Z,98967.72
2022-08-22T19:03:39.445Z,98959.72
2022-08-22T19:06:43.896Z,98961.28
2022-08-22T19:10:04.657Z,98965.63
2022-08-22T19:12:52.805Z,98958.41
2022-08-22T19:15:57.417Z,98960.75
2022-08-22T19:18:54.445Z,98967.09
2022-08-22T19:22:20.611Z,98973.00
2022-08-22T19:25:20.628Z,98970.22
2022-08-22T19:28:09.577Z,98969.81
2022-08-22T19:31:32.499Z,98974.13
2022-08-22T19:34:30.044Z,98975.25
2022-08-22T19:37:32.188Z,98972.94
2022-08-22T19:40:44.497Z,98968.91
2022-08-22T19:43:42.169Z,98976.84
2022-08-22T19:46:36.939Z,98978.38
2022-08-22T19:49:44.508Z,98985.53
2022-08-22T19:52:33.208Z,98982.75
2022-08-22T19:55:38.588Z,98981.50
2022-08-22T19:58:32.826Z,98982.75
2022-08-22T20:01:40.416Z,98975.16
2022-08-22T20:04:47.237Z,98981.09
2022-08-22T20:07:32.765Z,98982.63
2022-08-22T20:10:38.131Z,98976.28
2022-08-22T20:13:31.220Z,98977.84
2022-08-22T20:16:44.030Z,98972.63
2022-08-22T20:19:37.372Z,98971.06
2022-08-22T20:22:30.723Z,98962.03
2022-08-22T20:25:42.900Z,98976.38
2022-08-22T20:28:29.754Z,98963.34
2022-08-22T20:31:24.846Z,98959.09
2022-08-22T20:34:16.055Z,98960.31
2022-08-22T20:37:27.074Z,98959.19
2022-08-22T20:40:56.620Z,98962.75
2022-08-22T20:43:54.301Z,98958.16
2022-08-22T20:46:46.134Z,98953.81
2022-08-22T20:49:34.270Z,98953.13
2022-08-22T20:52:19.587Z,98959.50
2022-08-22T20:55:07.107Z,98964.25
2022-08-22T20:57:56.175Z,98958.03
2022-08-22T21:00:46.648Z,98954.53
2022-08-22T21:03:48.833Z,98958.44
2022-08-22T21:06:36.150Z,98958.09
2022-08-22T21:09:39.825Z,98953.03
2022-08-22T21:12:26.419Z,98960.59
2022-08-22T21:15:11.871Z,98964.25
2022-08-22T21:17:57.652Z,98961.91
2022-08-22T21:20:43.051Z,98967.81
2022-08-22T21:23:28.242Z,98961.91
2022-08-22T21:26:19.498Z,98965.13
2022-08-22T21:29:08.754Z,98967.13
2022-08-22T21:32:31.007Z,98958.88
2022-08-22T21:35:32.624Z,98964.69
2022-08-22T21:38:18.274Z,98965.91
2022-08-22T21:41:05.516Z,98963.22
2022-08-22T21:43:51.237Z,98961.66
2022-08-22T21:46:39.930Z,98956.09
2022-08-22T21:49:31.819Z,98947.81
2022-08-22T21:52:27.070Z,98941.84
2022-08-22T21:55:30.624Z,98941.06
2022-08-22T21:58:35.861Z,98944.19
2022-08-22T22:01:32.649Z,98938.28
2022-08-22T22:04:18.478Z,98947.47
2022-08-22T22:07:04.168Z,98946.28
2022-08-22T22:09:54.850Z,98946.00
2022-08-22T22:12:42.562Z,98952.69
2022-08-22T22:15:31.893Z,98956.72
2022-08-22T22:18:22.928Z,98957.06
2022-08-22T22:21:09.265Z,98959.50
2022-08-22T22:23:57.762Z,98953.94
2022-08-22T22:26:44.991Z,98953.16
2022-08-22T22:29:31.490Z,98957.13
2022-08-22T22:32:16.805Z,98956.72
2022-08-22T22:35:02.294Z,98950.78
2022-08-22T22:37:47.833Z,98954.81
2022-08-22T22:40:33.471Z,98954.47
2022-08-22T22:43:18.874Z,98954.13
2022-08-22T22:46:04.741Z,98955.66
2022-08-22T22:48:50.184Z,98961.56
2022-08-22T22:51:35.748Z,98952.88
2022-08-22T22:54:21.195Z,98951.34
2022-08-22T22:57:13.936Z,98955.66
2022-08-22T23:00:04.231Z,98950.09
2022-08-22T23:02:49.797Z,98946.97
2022-08-22T23:05:35.653Z,98952.53
2022-08-22T23:08:21.073Z,98944.66
2022-08-22T23:11:15.342Z,98950.97
2022-08-22T23:14:02.628Z,98945.41
2022-08-22T23:16:48.059Z,98954.97
2022-08-22T23:19:33.718Z,98949.84
2022-08-22T23:22:19.950Z,98951.84
2022-08-22T23:25:05.403Z,98938.72
2022-08-22T23:27:52.382Z,98939.94
2022-08-22T23:30:38.217Z,98940.72
2022-08-22T23:33:23.543Z,98931.59
2022-08-22T23:36:10.936Z,98941.16
2022-08-22T23:38:56.568Z,98944.72
2022-08-22T23:41:42.892Z,98938.38
2022-08-22T23:44:31.514Z,98933.66
2022-08-22T23:47:17.405Z,98929.69
2022-08-22T23:50:06.182Z,98933.25
2022-08-22T23:52:52.246Z,98933.66
2022-08-22T23:55:37.601Z,98933.66
2022-08-22T23:58:23.462Z,98930.13
